Time;durP1;ratioP1;P1;durP2;ratioP2;P2;SDS_P1;SDS_P2;PMS_P1;PMS_P2;Temp;Humidity;BMP_temperature;BMP_pressure;BME280_temperature;BME280_humidity;BME280_pressure;Samples;Min_cycle;Max_cycle;Signal;HPM_P1;HPM_P2
2022/01/07 09:53:49;;;;;;;6.13;1.30;;;;;;;;;;5059051;28;20401;-68
2022/01/07 09:56:15;;;;;;;3.90;1.37;;;;;;;;;;5046415;28;20057;-66
2022/01/07 09:58:40;;;;;;;2.77;1.43;;;;;;;;;;5036611;28;20143;-67
2022/01/07 10:01:09;;;;;;;4.37;1.87;;;;;;;;;;5041986;28;20022;-67
2022/01/07 10:03:38;;;;;;;2.43;1.10;;;;;;;;;;5040324;28;20416;-67
2022/01/07 10:06:15;;;;;;;6.23;1.73;;;;;;;;;;5042272;28;20116;-67
2022/01/07 10:08:40;;;;;;;2.87;1.57;;;;;;;;;;5046882;28;20029;-67
2022/01/07 10:11:14;;;;;;;4.40;1.90;;;;;;;;;;5038351;28;20067;-67
2022/01/07 10:13:39;;;;;;;3.37;1.20;;;;;;;;;;5044033;28;20390;-67
2022/01/07 10:16:15;;;;;;;2.85;1.40;;;;;;;;;;5043159;28;20029;-67
2022/01/07 10:18:40;;;;;;;5.15;1.48;;;;;;;;;;5043263;28;20052;-67
2022/01/07 10:21:10;;;;;;;3.55;1.30;;;;;;;;;;5037398;28;20025;-66
2022/01/07 10:23:35;;;;;;;3.45;1.48;;;;;;;;;;5041820;28;20053;-66
2022/01/07 10:26:00;;;;;;;3.70;1.50;;;;;;;;;;5047006;28;20064;-65
2022/01/07 10:28:32;;;;;;;4.55;1.65;;;;;;;;;;5039954;28;20517;-67
2022/01/07 10:31:02;;;;;;;3.20;1.15;;;;;;;;;;5038781;28;20068;-67
2022/01/07 10:33:38;;;;;;;4.03;1.30;;;;;;;;;;5051478;28;20366;-67
2022/01/07 10:36:06;;;;;;;2.67;1.50;;;;;;;;;;5044827;28;20248;-66
2022/01/07 10:38:31;;;;;;;2.25;1.15;;;;;;;;;;5046152;28;20472;-66
2022/01/07 10:40:59;;;;;;;2.58;1.90;;;;;;;;;;5038040;28;20014;-66
2022/01/07 10:43:32;;;;;;;2.72;1.60;;;;;;;;;;5033156;28;20025;-66
2022/01/07 10:45:59;;;;;;;2.78;1.55;;;;;;;;;;5034317;28;20026;-66
2022/01/07 10:48:35;;;;;;;4.35;1.67;;;;;;;;;;5041789;28;20090;-66
2022/01/07 10:51:04;;;;;;;3.47;1.95;;;;;;;;;;5040157;28;20387;-67
2022/01/07 10:53:29;;;;;;;4.22;1.63;;;;;;;;;;5043240;28;20049;-66
2022/01/07 10:56:11;;;;;;;3.88;1.52;;;;;;;;;;5045137;28;20029;-67
2022/01/07 10:59:00;;;;;;;4.15;1.48;;;;;;;;;;5044389;28;20053;-65
2022/01/07 11:01:28;;;;;;;3.28;1.75;;;;;;;;;;5037629;28;20029;-67
2022/01/07 11:03:57;;;;;;;2.78;1.60;;;;;;;;;;5039143;28;20053;-66
2022/01/07 11:06:23;;;;;;;3.88;1.63;;;;;;;;;;5027729;28;20525;-67
2022/01/07 11:08:49;;;;;;;3.42;1.45;;;;;;;;;;5029896;28;20533;-67
2022/01/07 11:11:14;;;;;;;3.40;1.67;;;;;;;;;;5020304;28;20068;-66
2022/01/07 11:13:41;;;;;;;4.07;1.23;;;;;;;;;;5025395;28;20084;-68
2022/01/07 11:16:06;;;;;;;3.75;1.63;;;;;;;;;;5019453;28;20084;-68
2022/01/07 11:18:31;;;;;;;3.60;1.95;;;;;;;;;;5014209;28;20125;-68
2022/01/07 11:20:58;;;;;;;4.05;2.10;;;;;;;;;;5023650;28;20233;-68
2022/01/07 11:23:27;;;;;;;4.50;1.77;;;;;;;;;;5029054;28;20037;-69
2022/01/07 11:26:03;;;;;;;2.67;1.60;;;;;;;;;;5035573;28;20025;-68
2022/01/07 11:28:29;;;;;;;4.13;1.83;;;;;;;;;;5024704;28;20022;-64
2022/01/07 11:31:04;;;;;;;5.88;1.90;;;;;;;;;;5036980;28;20030;-63
2022/01/07 11:33:30;;;;;;;5.05;1.65;;;;;;;;;;5023369;28;20486;-64
2022/01/07 11:35:55;;;;;;;2.45;1.52;;;;;;;;;;5032634;28;20058;-63
2022/01/07 11:38:31;;;;;;;3.92;1.35;;;;;;;;;;5030776;28;20022;-62
2022/01/07 11:40:56;;;;;;;2.90;1.70;;;;;;;;;;5023944;28;20033;-62
2022/01/07 11:43:21;;;;;;;4.30;2.20;;;;;;;;;;5025252;28;20412;-62
2022/01/07 11:45:47;;;;;;;2.88;1.27;;;;;;;;;;5032077;28;20037;-62
2022/01/07 11:48:12;;;;;;;3.20;1.20;;;;;;;;;;5029970;28;20474;-62
2022/01/07 11:50:48;;;;;;;2.10;1.13;;;;;;;;;;5027868;28;20028;-63
2022/01/07 11:53:13;;;;;;;;;;;;;;;;;;5028454;28;20375;-63
2022/01/07 11:55:38;;;;;;;2.78;1.27;;;;;;;;;;5023549;28;19976;-63
2022/01/07 11:58:05;;;;;;;5.35;1.52;;;;;;;;;;5031604;28;20029;-64
2022/01/07 12:00:50;;;;;;;1.50;0.80;;;;;;;;;;5033205;28;20088;-63
2022/01/07 12:03:34;;;;;;;2.40;1.00;;;;;;;;;;5036202;28;20114;-63
2022/01/07 12:06:00;;;;;;;2.95;0.88;;;;;;;;;;5029866;28;20120;-63
2022/01/07 12:08:57;;;;;;;2.17;0.80;;;;;;;;;;5030405;28;20622;-63
2022/01/07 12:11:23;;;;;;;1.98;0.82;;;;;;;;;;5019876;28;20486;-63
2022/01/07 12:13:49;;;;;;;3.90;1.10;;;;;;;;;;5024326;28;20030;-63
2022/01/07 12:16:17;;;;;;;3.08;1.40;;;;;;;;;;5025384;28;20083;-63
2022/01/07 12:18:43;;;;;;;2.95;0.93;;;;;;;;;;5032732;28;20038;-63
2022/01/07 12:21:08;;;;;;;2.33;0.82;;;;;;;;;;5015327;28;20022;-63
2022/01/07 12:23:33;;;;;;;1.15;0.90;;;;;;;;;;5030008;28;20056;-63
2022/01/07 12:26:03;;;;;;;2.08;0.95;;;;;;;;;;5029294;28;20044;-63
2022/01/07 12:28:34;;;;;;;2.25;0.95;;;;;;;;;;5027964;28;20108;-63
2022/01/07 12:31:04;;;;;;;4.32;0.85;;;;;;;;;;5029455;28;20026;-63
2022/01/07 12:33:30;;;;;;;3.22;0.80;;;;;;;;;;5020881;28;20029;-62
2022/01/07 12:35:55;;;;;;;3.08;0.98;;;;;;;;;;5023420;28;20022;-62
2022/01/07 12:38:21;;;;;;;3.53;1.52;;;;;;;;;;5021211;28;20022;-62
2022/01/07 12:40:51;;;;;;;2.13;0.88;;;;;;;;;;5015563;28;20025;-63
2022/01/07 12:43:18;;;;;;;3.78;1.00;;;;;;;;;;5018375;28;20022;-62
2022/01/07 12:45:53;;;;;;;3.38;1.23;;;;;;;;;;5016279;28;20144;-62
2022/01/07 12:48:29;;;;;;;2.55;0.90;;;;;;;;;;5017107;28;20474;-62
2022/01/07 12:50:58;;;;;;;2.67;0.70;;;;;;;;;;5021033;28;20035;-63
2022/01/07 12:53:24;;;;;;;2.60;0.73;;;;;;;;;;5023668;28;20061;-63
2022/01/07 12:55:49;;;;;;;2.90;0.90;;;;;;;;;;5023836;28;20028;-63
2022/01/07 12:58:25;;;;;;;2.10;0.60;;;;;;;;;;5007756;28;20018;-63
2022/01/07 13:00:50;;;;;;;3.40;1.20;;;;;;;;;;5038972;28;20024;-63
2022/01/07 13:03:16;;;;;;;3.97;0.98;;;;;;;;;;5021660;28;20029;-63
2022/01/07 13:05:42;;;;;;;2.50;0.88;;;;;;;;;;5022922;28;20109;-63
2022/01/07 13:08:07;;;;;;;3.10;0.73;;;;;;;;;;5019131;28;20415;-62
2022/01/07 13:10:35;;;;;;;2.55;0.70;;;;;;;;;;5029030;28;20025;-63
2022/01/07 13:13:00;;;;;;;2.72;0.93;;;;;;;;;;5020835;28;20024;-62
2022/01/07 13:15:45;;;;;;;2.05;0.50;;;;;;;;;;5022333;28;20021;-63
2022/01/07 13:18:23;;;;;;;4.65;1.23;;;;;;;;;;5020647;28;20021;-62
2022/01/07 13:20:49;;;;;;;1.83;0.50;;;;;;;;;;5020337;28;20546;-63
2022/01/07 13:23:15;;;;;;;2.90;0.60;;;;;;;;;;5027432;28;20029;-63
2022/01/07 13:25:40;;;;;;;2.97;0.95;;;;;;;;;;5029146;28;20048;-63
2022/01/07 13:28:07;;;;;;;3.33;0.90;;;;;;;;;;5024365;28;20044;-62
2022/01/07 13:30:43;;;;;;;2.85;1.10;;;;;;;;;;5021701;28;20017;-62
2022/01/07 13:33:13;;;;;;;4.50;0.88;;;;;;;;;;5019592;28;20026;-63
2022/01/07 13:35:38;;;;;;;4.55;1.17;;;;;;;;;;5011993;28;20069;-65
2022/01/07 13:38:11;;;;;;;3.25;0.95;;;;;;;;;;5022471;28;20021;-67
2022/01/07 13:40:37;;;;;;;4.60;1.25;;;;;;;;;;5022254;28;20100;-70
2022/01/07 13:43:06;;;;;;;1.92;0.70;;;;;;;;;;5017166;28;20151;-63
2022/01/07 13:45:31;;;;;;;1.95;0.90;;;;;;;;;;5011632;28;20494;-65
2022/01/07 13:48:02;;;;;;;2.40;0.90;;;;;;;;;;5016989;28;20026;-65
2022/01/07 13:50:31;;;;;;;1.83;0.95;;;;;;;;;;5028974;28;20394;-67
2022/01/07 13:52:56;;;;;;;2.10;0.80;;;;;;;;;;5031305;28;20132;-68
2022/01/07 13:55:25;;;;;;;2.30;1.00;;;;;;;;;;5011726;28;20057;-63
2022/01/07 13:57:50;;;;;;;3.15;1.15;;;;;;;;;;5026539;28;20053;-61
2022/01/07 14:00:15;;;;;;;4.03;1.10;;;;;;;;;;5024551;28;20399;-62
2022/01/07 14:02:46;;;;;;;4.30;1.70;;;;;;;;;;5029688;28;20076;-62
2022/01/07 14:05:12;;;;;;;3.47;1.60;;;;;;;;;;5031577;28;20017;-62
2022/01/07 14:07:40;;;;;;;3.83;1.43;;;;;;;;;;5029663;28;20037;-62
2022/01/07 14:10:11;;;;;;;3.80;1.70;;;;;;;;;;5028831;28;20104;-62
2022/01/07 14:12:46;;;;;;;3.80;1.60;;;;;;;;;;5021104;28;20028;-62
2022/01/07 14:15:12;;;;;;;2.95;1.83;;;;;;;;;;5020959;28;20393;-62
2022/01/07 14:17:38;;;;;;;4.07;2.10;;;;;;;;;;5030381;28;20037;-62
2022/01/07 14:20:04;;;;;;;4.45;2.22;;;;;;;;;;5009827;28;20072;-63
2022/01/07 14:22:30;;;;;;;3.65;1.88;;;;;;;;;;5026978;28;20505;-62
2022/01/07 14:24:55;;;;;;;6.50;2.37;;;;;;;;;;5030003;28;20029;-62
2022/01/07 14:27:31;;;;;;;6.05;2.38;;;;;;;;;;5043959;28;20035;-62
2022/01/07 14:29:57;;;;;;;6.43;2.70;;;;;;;;;;5023408;28;20026;-62
2022/01/07 14:32:25;;;;;;;6.27;2.33;;;;;;;;;;5034290;28;20032;-62
2022/01/07 14:34:51;;;;;;;4.17;2.50;;;;;;;;;;5027957;28;20308;-64
2022/01/07 14:37:16;;;;;;;5.40;2.93;;;;;;;;;;5026129;28;20042;-63
2022/01/07 14:39:44;;;;;;;4.10;2.40;;;;;;;;;;5027192;28;20032;-62
2022/01/07 14:42:09;;;;;;;3.93;2.50;;;;;;;;;;5026661;28;20060;-63
2022/01/07 14:44:34;;;;;;;7.03;3.30;;;;;;;;;;5030814;28;20037;-63
2022/01/07 14:46:59;;;;;;;4.67;2.80;;;;;;;;;;5032142;28;20446;-63
2022/01/07 14:49:24;;;;;;;4.27;2.10;;;;;;;;;;5033590;28;20496;-66
2022/01/07 14:51:50;;;;;;;4.73;2.27;;;;;;;;;;5029670;28;20099;-67
2022/01/07 14:54:15;;;;;;;5.47;2.60;;;;;;;;;;5029541;28;20022;-64
2022/01/07 14:56:40;;;;;;;8.27;3.13;;;;;;;;;;5034478;28;20017;-67
2022/01/07 14:59:06;;;;;;;6.17;2.73;;;;;;;;;;5027068;28;20540;-63
2022/01/07 15:01:31;;;;;;;4.13;2.03;;;;;;;;;;5016567;28;20029;-66
2022/01/07 15:03:56;;;;;;;4.07;2.67;;;;;;;;;;5033901;28;20029;-68
2022/01/07 15:06:21;;;;;;;5.63;2.50;;;;;;;;;;5032596;28;20105;-65
2022/01/07 15:08:46;;;;;;;4.90;2.60;;;;;;;;;;5032509;28;20030;-64
2022/01/07 15:11:12;;;;;;;4.47;2.70;;;;;;;;;;5025704;28;20063;-64
2022/01/07 15:13:37;;;;;;;4.77;2.00;;;;;;;;;;5032780;28;20033;-65
2022/01/07 15:18:29;;;;;;;2.80;1.63;;;;;;;;;;5029083;28;20426;-65
2022/01/07 15:20:54;;;;;;;6.63;2.10;;;;;;;;;;5030803;28;20498;-64
2022/01/07 15:23:20;;;;;;;4.63;2.13;;;;;;;;;;5027431;28;20133;-64
2022/01/07 15:25:45;;;;;;;3.63;1.93;;;;;;;;;;5032657;28;20056;-64
2022/01/07 15:28:10;;;;;;;4.77;2.23;;;;;;;;;;5026132;28;20014;-64
2022/01/07 15:30:36;;;;;;;4.13;2.00;;;;;;;;;;5021962;28;20413;-64
2022/01/07 15:33:02;;;;;;;5.67;2.77;;;;;;;;;;5029707;28;20022;-64
2022/01/07 15:35:28;;;;;;;4.83;2.30;;;;;;;;;;5014421;28;20030;-64
2022/01/07 15:37:53;;;;;;;7.10;2.60;;;;;;;;;;5028066;28;20027;-64
2022/01/07 15:40:18;;;;;;;5.57;2.37;;;;;;;;;;5014131;28;20153;-64
2022/01/07 15:42:44;;;;;;;6.57;2.60;;;;;;;;;;5026691;28;20471;-63
2022/01/07 15:45:10;;;;;;;5.83;2.70;;;;;;;;;;5014190;28;20057;-64
2022/01/07 15:47:36;;;;;;;6.00;2.83;;;;;;;;;;5028537;28;20053;-64
2022/01/07 15:50:02;;;;;;;7.73;2.87;;;;;;;;;;5024114;28;20033;-63
2022/01/07 15:52:27;;;;;;;4.67;2.40;;;;;;;;;;5029773;28;20528;-64
2022/01/07 15:54:55;;;;;;;4.27;2.63;;;;;;;;;;5033134;28;20018;-64
2022/01/07 15:57:21;;;;;;;4.93;3.07;;;;;;;;;;5018020;28;20460;-63
2022/01/07 15:59:46;;;;;;;8.33;3.20;;;;;;;;;;5031368;28;20071;-63
2022/01/07 16:02:11;;;;;;;5.13;2.80;;;;;;;;;;5031112;28;20502;-63
2022/01/07 16:04:36;;;;;;;4.93;2.90;;;;;;;;;;5014191;28;20156;-63
2022/01/07 16:07:01;;;;;;;7.03;3.23;;;;;;;;;;5030974;28;20018;-64
2022/01/07 16:09:27;;;;;;;5.40;2.70;;;;;;;;;;5022459;28;20528;-63
2022/01/07 16:11:52;;;;;;;6.07;3.83;;;;;;;;;;5020662;28;20033;-63
2022/01/07 16:14:18;;;;;;;6.87;3.57;;;;;;;;;;5032507;28;20028;-63
2022/01/07 16:16:43;;;;;;;7.83;3.47;;;;;;;;;;5025194;28;20076;-63
2022/01/07 16:19:09;;;;;;;4.57;3.00;;;;;;;;;;5015976;28;20017;-63
2022/01/07 16:21:34;;;;;;;6.07;3.97;;;;;;;;;;5025456;28;20029;-63
2022/01/07 16:23:59;;;;;;;8.20;4.17;;;;;;;;;;5035939;28;20079;-63
2022/01/07 16:26:25;;;;;;;4.53;2.87;;;;;;;;;;5028992;28;20029;-64
2022/01/07 16:28:50;;;;;;;8.23;3.33;;;;;;;;;;5024347;28;20079;-63
2022/01/07 16:31:16;;;;;;;9.33;3.67;;;;;;;;;;5012992;28;20034;-63
2022/01/07 16:33:41;;;;;;;5.43;3.50;;;;;;;;;;5012847;28;20026;-64
2022/01/07 16:36:06;;;;;;;9.40;2.90;;;;;;;;;;5013191;28;20022;-63
2022/01/07 16:38:32;;;;;;;5.40;3.90;;;;;;;;;;5013249;28;20474;-63
2022/01/07 16:40:57;;;;;;;3.90;2.53;;;;;;;;;;5017659;28;21516;-63
2022/01/07 16:43:24;;;;;;;3.90;2.63;;;;;;;;;;5018303;28;20470;-63
2022/01/07 16:45:49;;;;;;;5.03;2.70;;;;;;;;;;5022713;28;20021;-63
2022/01/07 16:48:15;;;;;;;5.37;2.83;;;;;;;;;;5016722;28;20026;-64
2022/01/07 16:50:40;;;;;;;4.70;3.17;;;;;;;;;;5022629;28;20184;-63
2022/01/07 16:53:05;;;;;;;5.20;2.70;;;;;;;;;;5019292;28;20441;-64
2022/01/07 16:55:33;;;;;;;3.60;2.83;;;;;;;;;;5020574;28;20076;-63
2022/01/07 16:57:58;;;;;;;5.40;2.93;;;;;;;;;;5016899;28;20043;-64
2022/01/07 17:00:23;;;;;;;2.63;2.43;;;;;;;;;;5025973;28;20541;-64
2022/01/07 17:02:49;;;;;;;2.80;2.30;;;;;;;;;;5012191;28;20032;-64
2022/01/07 17:05:15;;;;;;;6.00;3.30;;;;;;;;;;5027638;28;20025;-63
2022/01/07 17:07:40;;;;;;;4.20;2.70;;;;;;;;;;5025625;28;20124;-64
2022/01/07 17:10:06;;;;;;;5.57;3.10;;;;;;;;;;5028904;28;20025;-63
2022/01/07 17:12:33;;;;;;;3.43;2.27;;;;;;;;;;5033484;28;20037;-64
2022/01/07 17:14:58;;;;;;;4.43;3.10;;;;;;;;;;5013713;28;20388;-63
2022/01/07 17:17:24;;;;;;;4.83;2.50;;;;;;;;;;5013753;28;20109;-63
2022/01/07 17:19:49;;;;;;;4.00;2.57;;;;;;;;;;5025580;28;20193;-64
2022/01/07 17:22:14;;;;;;;4.10;2.33;;;;;;;;;;5030851;28;20082;-63
2022/01/07 17:24:41;;;;;;;3.45;2.58;;;;;;;;;;5024370;28;20457;-63
2022/01/07 17:27:08;;;;;;;2.83;1.83;;;;;;;;;;5030524;28;20021;-64
2022/01/07 17:29:33;;;;;;;5.00;2.87;;;;;;;;;;5014062;28;20029;-63
2022/01/07 17:31:58;;;;;;;4.87;3.00;;;;;;;;;;5010868;28;20509;-64
2022/01/07 17:34:23;;;;;;;3.10;2.23;;;;;;;;;;5020103;28;20487;-63
2022/01/07 17:36:49;;;;;;;3.10;2.43;;;;;;;;;;5012352;28;20022;-64
2022/01/07 17:39:14;;;;;;;4.37;3.17;;;;;;;;;;5027656;28;20021;-64
2022/01/07 17:41:39;;;;;;;5.57;3.10;;;;;;;;;;5023195;28;20241;-63
2022/01/07 17:44:04;;;;;;;4.37;2.90;;;;;;;;;;5030271;28;20429;-64
2022/01/07 17:46:30;;;;;;;3.87;3.20;;;;;;;;;;5024677;28;20054;-64
2022/01/07 17:48:55;;;;;;;4.20;3.13;;;;;;;;;;5031746;28;20018;-63
2022/01/07 17:51:20;;;;;;;4.63;3.63;;;;;;;;;;5024997;28;20394;-63
2022/01/07 17:53:45;;;;;;;4.80;3.30;;;;;;;;;;5011697;28;20057;-63
2022/01/07 17:56:11;;;;;;;4.43;3.00;;;;;;;;;;5027376;28;20028;-64
2022/01/07 17:58:36;;;;;;;5.07;4.00;;;;;;;;;;5020523;28;20013;-64
2022/01/07 18:01:01;;;;;;;9.20;4.47;;;;;;;;;;5031531;28;20053;-65
2022/01/07 18:03:26;;;;;;;5.47;3.93;;;;;;;;;;5022722;28;20112;-64
2022/01/07 18:05:51;;;;;;;5.73;4.30;;;;;;;;;;5030504;28;20124;-64
2022/01/07 18:08:17;;;;;;;6.70;4.10;;;;;;;;;;5028490;28;20112;-64
2022/01/07 18:10:43;;;;;;;7.03;4.13;;;;;;;;;;5011369;28;20071;-64
2022/01/07 18:13:09;;;;;;;4.43;3.80;;;;;;;;;;5024057;28;20021;-64
2022/01/07 18:15:34;;;;;;;3.43;3.13;;;;;;;;;;5034444;28;20444;-64
2022/01/07 18:17:59;;;;;;;3.47;3.03;;;;;;;;;;5035219;28;20025;-64
2022/01/07 18:20:25;;;;;;;6.20;3.87;;;;;;;;;;5028113;28;20018;-64
2022/01/07 18:22:51;;;;;;;4.57;3.50;;;;;;;;;;5016137;28;20107;-64
2022/01/07 18:25:16;;;;;;;5.33;2.93;;;;;;;;;;5015691;28;20022;-64
2022/01/07 18:27:42;;;;;;;3.13;2.27;;;;;;;;;;5044064;28;20032;-64
2022/01/07 18:30:08;;;;;;;2.60;2.27;;;;;;;;;;5034971;28;20112;-64
2022/01/07 18:32:33;;;;;;;4.87;3.27;;;;;;;;;;5034895;28;20558;-64
2022/01/07 18:34:58;;;;;;;3.03;2.20;;;;;;;;;;5034372;28;20466;-64
2022/01/07 18:37:23;;;;;;;5.13;3.77;;;;;;;;;;5029341;28;20021;-64
2022/01/07 18:39:50;;;;;;;3.40;3.10;;;;;;;;;;5030110;28;20033;-64
2022/01/07 18:42:15;;;;;;;3.70;2.30;;;;;;;;;;5022987;28;20025;-64
2022/01/07 18:44:40;;;;;;;5.17;2.83;;;;;;;;;;5025440;28;20044;-64
2022/01/07 18:47:11;;;;;;;5.07;3.33;;;;;;;;;;5000209;28;20427;-64
2022/01/07 18:49:36;;;;;;;4.77;3.13;;;;;;;;;;5023046;28;20026;-64
2022/01/07 18:52:01;;;;;;;4.93;3.07;;;;;;;;;;5030178;28;20364;-64
2022/01/07 18:54:27;;;;;;;3.43;2.70;;;;;;;;;;5035385;28;20075;-64
2022/01/07 18:56:52;;;;;;;4.27;2.73;;;;;;;;;;5034837;28;20021;-64
2022/01/07 18:59:18;;;;;;;3.85;2.88;;;;;;;;;;5028204;28;20026;-64
2022/01/07 19:01:43;;;;;;;3.50;2.73;;;;;;;;;;5028337;28;20079;-65
2022/01/07 19:04:08;;;;;;;4.23;3.03;;;;;;;;;;5050119;28;20028;-64
2022/01/07 19:06:33;;;;;;;5.30;2.90;;;;;;;;;;5032584;28;20021;-64
2022/01/07 19:08:59;;;;;;;3.00;2.40;;;;;;;;;;5032280;28;20033;-64
2022/01/07 19:11:24;;;;;;;2.63;2.20;;;;;;;;;;5028355;28;20474;-64
2022/01/07 19:13:49;;;;;;;3.40;2.40;;;;;;;;;;5030912;28;20116;-64
2022/01/07 19:16:14;;;;;;;3.63;2.50;;;;;;;;;;5033656;28;20075;-64
2022/01/07 19:18:41;;;;;;;2.17;1.57;;;;;;;;;;5030364;28;20029;-64
2022/01/07 19:21:06;;;;;;;2.90;2.35;;;;;;;;;;5045408;28;20100;-63
2022/01/07 19:23:32;;;;;;;2.33;2.03;;;;;;;;;;5023964;28;20446;-63
2022/01/07 19:25:57;;;;;;;3.10;1.87;;;;;;;;;;5034438;28;20021;-64
2022/01/07 19:28:23;;;;;;;2.23;1.90;;;;;;;;;;5019215;28;20022;-64
2022/01/07 19:30:48;;;;;;;3.57;2.23;;;;;;;;;;5029589;28;20036;-66
2022/01/07 19:33:13;;;;;;;2.83;2.20;;;;;;;;;;5043699;28;20025;-66
2022/01/07 19:35:39;;;;;;;3.07;2.30;;;;;;;;;;5032733;28;20021;-66
2022/01/07 19:38:05;;;;;;;3.77;2.77;;;;;;;;;;5024714;28;20072;-67
2022/01/07 19:40:30;;;;;;;3.10;2.13;;;;;;;;;;5022262;28;20030;-65
2022/01/07 19:42:55;;;;;;;3.57;2.80;;;;;;;;;;5032690;28;20533;-66
2022/01/07 19:45:20;;;;;;;3.47;2.67;;;;;;;;;;5033358;28;20017;-67
2022/01/07 19:47:46;;;;;;;4.50;2.53;;;;;;;;;;5031714;28;20037;-65
2022/01/07 19:50:13;;;;;;;3.17;2.83;;;;;;;;;;5037636;28;20030;-65
2022/01/07 19:52:38;;;;;;;3.37;3.07;;;;;;;;;;5015483;28;20529;-66
2022/01/07 19:55:04;;;;;;;3.10;2.77;;;;;;;;;;5032386;28;20026;-66
2022/01/07 19:57:29;;;;;;;4.20;3.20;;;;;;;;;;5032122;28;20021;-66
2022/01/07 19:59:54;;;;;;;3.50;2.87;;;;;;;;;;5015270;28;20083;-66
2022/01/07 20:02:19;;;;;;;3.20;2.57;;;;;;;;;;5033113;28;20100;-66
2022/01/07 20:04:45;;;;;;;3.27;2.80;;;;;;;;;;5032055;28;20130;-66
2022/01/07 20:07:10;;;;;;;2.77;2.33;;;;;;;;;;5033039;28;20040;-66
2022/01/07 20:09:37;;;;;;;3.07;2.77;;;;;;;;;;5030753;28;20397;-66
2022/01/07 20:12:02;;;;;;;3.03;2.73;;;;;;;;;;5016800;28;20029;-67
2022/01/07 20:14:28;;;;;;;3.00;2.60;;;;;;;;;;5026525;28;20051;-66
2022/01/07 20:16:53;;;;;;;2.73;2.43;;;;;;;;;;5013350;28;20390;-66
2022/01/07 20:19:18;;;;;;;3.37;2.80;;;;;;;;;;5017228;28;20080;-66
2022/01/07 20:21:44;;;;;;;3.03;2.53;;;;;;;;;;5012265;28;20144;-66
2022/01/07 20:24:09;;;;;;;3.00;2.70;;;;;;;;;;5031175;28;20034;-65
2022/01/07 20:26:34;;;;;;;3.13;2.70;;;;;;;;;;5021456;28;20466;-65
2022/01/07 20:28:59;;;;;;;2.63;2.10;;;;;;;;;;5033137;28;20116;-66
2022/01/07 20:31:24;;;;;;;3.23;1.97;;;;;;;;;;5028257;28;20026;-67
2022/01/07 20:33:50;;;;;;;3.73;1.83;;;;;;;;;;5030726;28;20037;-66
2022/01/07 20:36:15;;;;;;;2.17;1.73;;;;;;;;;;5021761;28;20026;-67
2022/01/07 20:38:40;;;;;;;1.73;1.63;;;;;;;;;;5015312;28;20496;-66
2022/01/07 20:41:05;;;;;;;1.80;1.70;;;;;;;;;;5020049;28;20488;-67
2022/01/07 20:43:31;;;;;;;2.60;1.63;;;;;;;;;;5026659;28;20517;-66
2022/01/07 20:45:56;;;;;;;2.67;1.80;;;;;;;;;;5027875;28;20033;-67
2022/01/07 20:48:21;;;;;;;1.93;1.70;;;;;;;;;;5032268;28;20029;-66
2022/01/07 20:50:47;;;;;;;2.60;1.53;;;;;;;;;;5025656;28;20113;-66
2022/01/07 20:53:12;;;;;;;1.60;1.50;;;;;;;;;;5022121;28;20749;-66
2022/01/07 20:55:37;;;;;;;1.93;1.70;;;;;;;;;;5029361;28;20021;-66
2022/01/07 20:58:03;;;;;;;2.70;2.10;;;;;;;;;;5029960;28;20048;-66
2022/01/07 21:00:28;;;;;;;3.37;2.30;;;;;;;;;;5028992;28;20017;-67
2022/01/07 21:02:54;;;;;;;2.40;2.17;;;;;;;;;;5031984;28;20025;-66
2022/01/07 21:05:19;;;;;;;3.13;2.17;;;;;;;;;;5017065;28;20036;-67
2022/01/07 21:07:46;;;;;;;2.17;1.97;;;;;;;;;;5031008;28;20018;-66
2022/01/07 21:10:12;;;;;;;2.50;2.13;;;;;;;;;;5044624;28;20029;-67
2022/01/07 21:12:37;;;;;;;3.20;2.00;;;;;;;;;;5020750;28;20149;-67
2022/01/07 21:15:03;;;;;;;2.10;1.73;;;;;;;;;;5029761;28;20117;-66
2022/01/07 21:17:28;;;;;;;2.40;1.60;;;;;;;;;;5031561;28;20028;-66
2022/01/07 21:19:53;;;;;;;2.90;1.67;;;;;;;;;;5026903;28;20101;-66
2022/01/07 21:22:19;;;;;;;2.45;1.85;;;;;;;;;;5029507;28;20509;-66
2022/01/07 21:24:44;;;;;;;2.10;1.53;;;;;;;;;;5031566;28;20574;-67
2022/01/07 21:27:09;;;;;;;1.53;1.30;;;;;;;;;;5029602;28;20024;-67
2022/01/07 21:29:34;;;;;;;2.57;1.70;;;;;;;;;;5030426;28;20033;-67
2022/01/07 21:32:00;;;;;;;2.17;1.67;;;;;;;;;;5030108;28;20033;-67
2022/01/07 21:34:25;;;;;;;2.03;1.63;;;;;;;;;;5016070;28;20184;-67
2022/01/07 21:36:50;;;;;;;1.73;1.60;;;;;;;;;;5023556;28;20053;-67
2022/01/07 21:39:15;;;;;;;2.20;1.77;;;;;;;;;;5029929;28;20021;-67
2022/01/07 21:41:40;;;;;;;2.33;1.63;;;;;;;;;;5020737;28;20032;-67
2022/01/07 21:44:07;;;;;;;1.30;1.10;;;;;;;;;;5030091;28;20048;-66
2022/01/07 21:46:32;;;;;;;1.70;1.47;;;;;;;;;;5029518;28;20474;-65
2022/01/07 21:48:57;;;;;;;1.80;1.70;;;;;;;;;;5030055;28;20033;-66
2022/01/07 21:51:26;;;;;;;2.00;1.50;;;;;;;;;;5029607;28;20467;-67
2022/01/07 21:53:52;;;;;;;1.30;1.10;;;;;;;;;;5032484;28;20409;-67
2022/01/07 21:56:17;;;;;;;2.73;1.90;;;;;;;;;;5030616;28;20108;-67
2022/01/07 21:58:42;;;;;;;2.47;1.77;;;;;;;;;;5023941;28;20029;-67
2022/01/07 22:01:07;;;;;;;3.00;1.93;;;;;;;;;;5030653;28;20490;-66
2022/01/07 22:03:33;;;;;;;2.83;2.00;;;;;;;;;;5031502;28;20024;-67
2022/01/07 22:05:58;;;;;;;1.73;1.63;;;;;;;;;;5031129;28;20025;-66
2022/01/07 22:08:23;;;;;;;3.53;1.60;;;;;;;;;;5026085;28;20437;-66
2022/01/07 22:10:48;;;;;;;2.23;1.90;;;;;;;;;;5025007;28;20025;-66
2022/01/07 22:13:14;;;;;;;2.57;1.73;;;;;;;;;;5029847;28;20029;-66
2022/01/07 22:15:39;;;;;;;3.17;1.67;;;;;;;;;;5010936;28;20475;-66
2022/01/07 22:18:04;;;;;;;2.33;1.63;;;;;;;;;;5012724;28;20037;-66
2022/01/07 22:20:29;;;;;;;1.50;1.30;;;;;;;;;;5030145;28;20578;-66
2022/01/07 22:22:55;;;;;;;2.10;1.53;;;;;;;;;;5027793;28;20030;-66
2022/01/07 22:25:21;;;;;;;2.57;1.73;;;;;;;;;;5037629;28;20029;-66
2022/01/07 22:27:46;;;;;;;1.70;1.60;;;;;;;;;;5029538;28;20021;-66
2022/01/07 22:30:12;;;;;;;3.17;1.67;;;;;;;;;;5027843;28;20026;-66
2022/01/07 22:32:38;;;;;;;3.10;1.80;;;;;;;;;;5020288;28;20045;-66
2022/01/07 22:35:04;;;;;;;3.40;2.20;;;;;;;;;;5027941;28;20470;-66
2022/01/07 22:37:29;;;;;;;3.33;2.17;;;;;;;;;;5016269;28;20042;-65
2022/01/07 22:39:55;;;;;;;1.90;1.70;;;;;;;;;;5023435;28;20040;-65
2022/01/07 22:42:20;;;;;;;2.27;2.00;;;;;;;;;;5019846;28;20033;-65
2022/01/07 22:44:46;;;;;;;2.40;2.13;;;;;;;;;;5021509;28;20083;-66
2022/01/07 22:47:11;;;;;;;2.23;1.80;;;;;;;;;;5017294;28;20025;-66
2022/01/07 22:49:37;;;;;;;2.50;1.97;;;;;;;;;;5032109;28;20033;-66
2022/01/07 22:52:03;;;;;;;2.57;2.20;;;;;;;;;;5029435;28;20061;-66
2022/01/07 22:54:28;;;;;;;2.80;2.00;;;;;;;;;;5023569;28;20145;-67
2022/01/07 22:56:53;;;;;;;2.63;2.13;;;;;;;;;;5047784;28;20059;-66
2022/01/07 22:59:19;;;;;;;2.23;1.80;;;;;;;;;;5013096;28;20390;-67
2022/01/07 23:01:44;;;;;;;3.00;2.43;;;;;;;;;;5031139;28;20113;-66
2022/01/07 23:04:09;;;;;;;3.43;2.80;;;;;;;;;;5033878;28;20381;-66
2022/01/07 23:06:34;;;;;;;2.20;1.90;;;;;;;;;;5025719;28;20030;-67
2022/01/07 23:09:00;;;;;;;2.77;2.17;;;;;;;;;;5032594;28;20517;-66
2022/01/07 23:11:25;;;;;;;2.70;2.10;;;;;;;;;;5019472;28;20049;-66
2022/01/07 23:13:53;;;;;;;2.77;2.20;;;;;;;;;;5022189;28;20030;-66
2022/01/07 23:16:25;;;;;;;3.20;2.43;;;;;;;;;;5024605;28;20025;-66
2022/01/07 23:18:50;;;;;;;3.43;2.30;;;;;;;;;;5018060;28;20509;-67
2022/01/07 23:21:15;;;;;;;3.30;2.70;;;;;;;;;;5017010;28;20022;-67
2022/01/07 23:23:41;;;;;;;2.63;2.33;;;;;;;;;;5034423;28;20039;-67
2022/01/07 23:26:06;;;;;;;3.60;2.50;;;;;;;;;;5017490;28;20030;-66
2022/01/07 23:28:31;;;;;;;2.50;2.30;;;;;;;;;;5032009;28;20365;-66
2022/01/07 23:30:56;;;;;;;2.97;2.00;;;;;;;;;;5033977;28;20425;-66
2022/01/07 23:33:22;;;;;;;2.97;2.47;;;;;;;;;;5031283;28;20030;-66
2022/01/07 23:35:47;;;;;;;1.87;1.60;;;;;;;;;;5031520;28;20022;-66
2022/01/07 23:38:13;;;;;;;1.73;1.20;;;;;;;;;;5029355;28;20049;-66
2022/01/07 23:40:42;;;;;;;1.97;1.77;;;;;;;;;;5013977;28;20040;-66
2022/01/07 23:43:08;;;;;;;2.30;1.57;;;;;;;;;;5023004;28;20026;-67
2022/01/07 23:45:33;;;;;;;2.37;1.40;;;;;;;;;;5028924;28;20018;-66
2022/01/07 23:47:59;;;;;;;1.40;1.00;;;;;;;;;;5033369;28;20091;-66
2022/01/07 23:50:24;;;;;;;1.60;1.40;;;;;;;;;;5032157;28;20052;-66
2022/01/07 23:52:52;;;;;;;2.30;1.60;;;;;;;;;;5014566;28;20500;-67
2022/01/07 23:55:18;;;;;;;2.63;1.50;;;;;;;;;;5025907;28;20048;-67
2022/01/07 23:57:43;;;;;;;0.73;0.70;;;;;;;;;;5024568;28;20730;-67
